Weather reports worldwide

Advertisment
Bealach, United Kingdom (3039): temperature & dewpoint: 22.02.2017 14:00:00 - 28.02.2017 14:00:00 (GMT)Bealach, United Kingdom (3039): wind speed & gusts: 22.02.2017 14:00:00 - 28.02.2017 14:00:00 (GMT)Bealach, United Kingdom (3039): wind direction: 22.02.2017 14:00:00 - 28.02.2017 14:00:00 (GMT)
Date & Time tt [°C] td [°C] ff [km/h] ff [kn] fx [km/h] fx [kn] dd
28.02.2017 14:00:00 -1,4 - 11 6 - - NE
28.02.2017 13:00:00 -1,8 -1,8 11 6 - - ENE
28.02.2017 12:00:00 -1,8 -1,8 9 5 - - ENE
28.02.2017 11:00:00 -2,8 -2,8 29 16 - - E
28.02.2017 10:00:00 -3,1 -3,7 28 15 50 27 E
28.02.2017 09:00:00 -2,7 -3,5 26 14 46 25 E
28.02.2017 08:00:00 -3,1 -4,3 13 7 - - ESE
28.02.2017 07:00:00 -2,7 -3,7 21 11 - - ESE
28.02.2017 06:00:00 -2,1 -2,9 11 6 46 25 SE
28.02.2017 05:00:00 -1,5 -2,2 31 17 52 28 SSE
28.02.2017 04:00:00 -1,2 -1,7 35 19 54 29 S
28.02.2017 03:00:00 -2,2 -2,6 37 20 54 29 S
28.02.2017 02:00:00 -1,8 -2,0 42 23 52 28 SSW
28.02.2017 01:00:00 -2,4 -3,3 35 19 - - SSW
28.02.2017 00:00:00 -2,8 -3,9 26 14 - - SW
27.02.2017 23:00:00 -2,6 -3,6 22 12 - - WSW
27.02.2017 22:00:00 -2,9 -4,1 21 11 - - SW
27.02.2017 21:00:00 -2,6 -3,3 18 10 - - WSW
27.02.2017 20:00:00 -2,4 -3,1 28 15 - - SW
27.02.2017 19:00:00 -2,5 -3,2 22 12 - - SW
27.02.2017 18:00:00 -2,7 -3,1 22 12 - - SSW
27.02.2017 17:00:00 -2,6 -2,6 24 13 - - SSW
27.02.2017 16:00:00 -2,4 -2,4 24 13 - - S
27.02.2017 15:00:00 -2,4 -2,4 34 18 - - SSW
27.02.2017 14:00:00 -2,7 -2,7 28 15 - - S
27.02.2017 13:00:00 -2,7 -2,7 28 15 46 25 S
27.02.2017 12:00:00 -3,0 -3,0 34 18 50 27 S
27.02.2017 11:00:00 -3,0 -3,0 29 16 55 30 S
27.02.2017 10:00:00 -3,2 -3,4 26 14 55 30 S
27.02.2017 09:00:00 -3,5 -3,9 28 15 50 27 S
27.02.2017 08:00:00 -3,5 -3,9 31 17 61 33 S
27.02.2017 07:00:00 -3,2 -3,3 31 17 63 34 S
27.02.2017 06:00:00 -3,3 -3,3 46 25 81 44 SSW
27.02.2017 05:00:00 -2,4 -2,4 50 27 74 40 SSW
27.02.2017 04:00:00 -2,9 -2,9 57 31 76 41 SSW
27.02.2017 03:00:00 -3,0 -3,0 48 26 68 37 SSW
27.02.2017 02:00:00 -2,3 -2,3 28 15 72 39 S
27.02.2017 01:00:00 -3,2 -3,2 54 29 72 39 SSW
27.02.2017 00:00:00 -2,6 -2,6 42 23 94 51 WSW
26.02.2017 23:00:00 -2,8 -2,8 63 34 81 44 SSW
26.02.2017 22:00:00 -2,5 -2,5 35 19 76 41 SW
26.02.2017 21:00:00 -2,3 -2,3 50 27 70 38 WSW
26.02.2017 20:00:00 -1,2 -1,2 46 25 63 34 WSW
26.02.2017 19:00:00 -0,7 - 34 18 72 39 WSW
26.02.2017 18:00:00 -0,2 - 46 25 59 32 SSW
26.02.2017 17:00:00 -0,6 - 39 21 48 26 W
26.02.2017 16:00:00 -0,7 - 29 16 - - SW
26.02.2017 15:00:00 0,7 - 13 7 - - SE
26.02.2017 14:00:00 0,7 - 26 14 48 26 SSE
26.02.2017 13:00:00 0,0 - 16 9 54 29 SSE
26.02.2017 12:00:00 0,8 - 39 21 61 33 S
26.02.2017 11:00:00 0,5 - 26 14 48 26 S
26.02.2017 10:00:00 0,4 - 39 21 52 28 SSW
26.02.2017 09:00:00 0,0 - 37 20 68 37 SSW
26.02.2017 08:00:00 0,6 - 55 30 89 48 SSW
26.02.2017 07:00:00 0,0 - 41 22 89 48 SSE
26.02.2017 06:00:00 0,0 - 48 26 91 49 SSE
26.02.2017 05:00:00 0,0 - 57 31 87 47 S
26.02.2017 04:00:00 0,2 - 48 26 87 47 S
26.02.2017 03:00:00 0,5 - 28 15 93 50 S
26.02.2017 02:00:00 0,6 - 28 15 89 48 S
26.02.2017 01:00:00 0,6 - 65 35 89 48 SSW
26.02.2017 00:00:00 0,6 - 42 23 68 37 S
25.02.2017 23:00:00 0,4 - 50 27 67 36 SSW
25.02.2017 22:00:00 0,5 - 42 23 54 29 SSW
25.02.2017 21:00:00 0,3 - 39 21 46 25 SSW
25.02.2017 20:00:00 -0,2 - 28 15 - - SW
25.02.2017 19:00:00 0,0 - 31 17 - - WSW
25.02.2017 18:00:00 0,5 - 31 17 46 25 W
25.02.2017 17:00:00 0,7 - 35 19 48 26 WSW
25.02.2017 16:00:00 1,4 - 41 22 54 29 W
25.02.2017 15:00:00 1,7 - 39 21 55 30 W
25.02.2017 14:00:00 1,0 - 42 23 55 30 W
25.02.2017 13:00:00 1,9 - 42 23 55 30 W
25.02.2017 12:00:00 0,2 - 48 26 68 37 WNW
25.02.2017 11:00:00 2,5 - 46 25 63 34 W
25.02.2017 10:00:00 3,2 - 50 27 78 42 W
25.02.2017 09:00:00 4,3 - 78 42 131 71 WSW
25.02.2017 08:00:00 4,5 - 106 57 143 77 SSW
25.02.2017 07:00:00 4,3 - 100 54 128 69 SSW
25.02.2017 06:00:00 3,9 - 94 51 122 66 SSW
25.02.2017 05:00:00 4,1 - 81 44 130 70 SSW
25.02.2017 04:00:00 4,1 - 78 42 113 61 SSW
25.02.2017 03:00:00 5,0 - 76 41 113 61 SSW
25.02.2017 02:00:00 3,7 - 87 47 122 66 SSW
25.02.2017 01:00:00 3,4 - 96 52 119 64 SSW
25.02.2017 00:00:00 3,0 - 81 44 115 62 SSW
24.02.2017 23:00:00 2,6 2,5 81 44 117 63 SSW
24.02.2017 22:00:00 2,4 2,4 80 43 115 62 SSW
24.02.2017 21:00:00 1,9 1,9 91 49 124 67 SSW
24.02.2017 20:00:00 1,2 1,2 87 47 117 63 S
24.02.2017 19:00:00 0,0 0,0 67 36 100 54 S
24.02.2017 18:00:00 -0,8 -0,8 48 26 91 49 S
24.02.2017 17:00:00 -0,8 -0,8 50 27 81 44 SSE
24.02.2017 16:00:00 -0,7 -0,7 39 21 76 41 SSE
24.02.2017 15:00:00 -0,8 -0,8 35 19 85 46 S
24.02.2017 14:00:00 -1,1 -1,1 39 21 59 32 SSW
24.02.2017 13:00:00 -0,8 -0,8 41 22 57 31 SSW
24.02.2017 12:00:00 -1,2 -1,2 35 19 - - SSW
24.02.2017 11:00:00 -1,3 -1,3 26 14 - - SSW
24.02.2017 10:00:00 -1,5 -1,5 16 9 - - SW
24.02.2017 09:00:00 -1,8 -1,8 18 10 - - W
24.02.2017 08:00:00 -2,2 -2,2 16 9 - - WNW
24.02.2017 07:00:00 -1,3 -1,3 24 13 - - NW
24.02.2017 06:00:00 -1,2 -1,2 29 16 50 27 NW
24.02.2017 05:00:00 -1,3 -1,3 41 22 54 29 WNW
24.02.2017 04:00:00 -1,4 -1,4 41 22 57 31 WNW
24.02.2017 03:00:00 -1,1 -1,1 42 23 57 31 NW
24.02.2017 02:00:00 -1,2 -1,2 50 27 63 34 NW
24.02.2017 01:00:00 -1,4 -1,4 52 28 61 33 NW
24.02.2017 00:00:00 -1,6 -1,6 44 24 55 30 NW
23.02.2017 23:00:00 -1,5 -1,5 42 23 50 27 NW
23.02.2017 22:00:00 -1,4 -1,4 41 22 50 27 NW
23.02.2017 21:00:00 -0,7 -0,7 35 19 - - NW
23.02.2017 20:00:00 -1,6 -1,6 26 14 - - W
23.02.2017 19:00:00 -1,6 -1,6 31 17 - - WNW
23.02.2017 18:00:00 -1,8 -1,8 22 12 - - W
23.02.2017 17:00:00 -1,7 -1,7 11 6 - - WNW
23.02.2017 16:00:00 -1,7 -1,7 9 5 - - WNW
23.02.2017 15:00:00 -1,3 -1,3 4 2 - - SSE
23.02.2017 14:00:00 -1,1 -1,1 5 3 - - NW
23.02.2017 13:00:00 -1,6 -1,6 9 5 - - E
23.02.2017 12:00:00 -1,8 -1,8 31 17 50 27 N
23.02.2017 11:00:00 -1,9 -1,9 34 18 46 25 N
23.02.2017 10:00:00 -1,8 -1,8 35 19 - - N
23.02.2017 09:00:00 -2,4 -2,4 24 13 - - NNE
23.02.2017 08:00:00 -2,4 -2,4 16 9 52 28 ENE
23.02.2017 07:00:00 -2,4 -2,4 44 24 67 36 E
23.02.2017 06:00:00 -2,4 -2,4 52 28 72 39 E
23.02.2017 05:00:00 -2,5 -2,5 42 23 70 38 ESE
23.02.2017 04:00:00 -2,2 -2,2 34 18 59 32 E
23.02.2017 03:00:00 -1,9 -1,9 16 9 - - E
23.02.2017 02:00:00 -1,7 -1,7 13 7 - - ESE
23.02.2017 01:00:00 -1,1 -1,1 5 3 - - SE
23.02.2017 00:00:00 -1,2 -1,2 11 6 - - SSE
22.02.2017 23:00:00 -1,4 -1,4 16 9 - - S
22.02.2017 22:00:00 -1,3 -1,3 13 7 - - SW
22.02.2017 21:00:00 -1,0 -1,0 18 10 - - WSW
22.02.2017 20:00:00 -1,2 -1,2 21 11 - - WNW
22.02.2017 19:00:00 -1,0 -1,0 21 11 - - W
22.02.2017 18:00:00 -1,1 -1,1 34 18 61 33 NW
22.02.2017 17:00:00 -0,8 -0,8 44 24 67 36 NW
22.02.2017 16:00:00 -0,3 -0,3 39 21 61 33 WNW
22.02.2017 15:00:00 -0,2 -0,2 48 26 76 41 WNW
22.02.2017 14:00:00 -0,8 -0,8 55 30 78 42 WNW

tt = temperature
td = dewpoint
ff = wind speed
fx = gusts
dd = wind direction

Next stations